createdAt,value
2018-06-14T00:01:56.960Z,100317.84
2018-06-14T00:04:25.487Z,100320.09
2018-06-14T00:06:54.069Z,100323.09
2018-06-14T00:09:22.855Z,100325.45
2018-06-14T00:11:51.205Z,100328.21
2018-06-14T00:14:19.745Z,100325.08
2018-06-14T00:16:48.306Z,100326.23
2018-06-14T00:19:17.194Z,100323.14
2018-06-14T00:21:45.687Z,100322.86
2018-06-14T00:24:14.976Z,100324.05
2018-06-14T00:26:43.614Z,100321.59
2018-06-14T00:29:12.179Z,100325.08
2018-06-14T00:31:40.966Z,100320.03
2018-06-14T00:34:11.312Z,100313.33
2018-06-14T00:36:40.243Z,100321.37
2018-06-14T00:39:10.068Z,100323.73
2018-06-14T00:41:38.614Z,100317.56
2018-06-14T00:44:07.818Z,100321.22
2018-06-14T00:46:37.096Z,100317.28
2018-06-14T00:49:05.427Z,100312.94
2018-06-14T00:51:39.298Z,100314.95
2018-06-14T00:54:07.744Z,100315.91
2018-06-14T00:57:45.374Z,100323.45
2018-06-14T01:00:13.681Z,100319.69
2018-06-14T01:02:42.154Z,100318.03
2018-06-14T01:05:10.559Z,100324.48
2018-06-14T01:07:39.502Z,100317.25
2018-06-14T01:10:08.912Z,100315.59
2018-06-14T01:18:32.211Z,100313.84
2018-06-14T01:21:00.790Z,100315.91
2018-06-14T01:23:29.910Z,100314.81
2018-06-14T01:26:04.066Z,100314.08
2018-06-14T01:28:33.938Z,100318.09
2018-06-14T01:31:07.346Z,100320.00
2018-06-14T01:33:36.224Z,100318.73
2018-06-14T01:36:04.720Z,100320.14
2018-06-14T01:38:33.102Z,100322.58
2018-06-14T01:43:53.823Z,100322.83
2018-06-14T01:46:22.551Z,100322.50
2018-06-14T01:48:51.346Z,100326.77
2018-06-14T01:51:20.010Z,100327.02
2018-06-14T01:53:48.346Z,100321.87
2018-06-14T01:56:16.718Z,100322.36
2018-06-14T01:58:44.972Z,100320.61
2018-06-14T02:01:13.664Z,100320.70
2018-06-14T02:03:42.076Z,100321.95
2018-06-14T02:06:11.480Z,100316.02
2018-06-14T02:08:39.836Z,100318.77
2018-06-14T02:11:08.556Z,100319.80
2018-06-14T02:13:36.887Z,100320.98
2018-06-14T02:16:08.132Z,100322.69
2018-06-14T02:18:37.909Z,100321.41
2018-06-14T02:21:06.414Z,100325.36
2018-06-14T02:23:35.223Z,100328.53
2018-06-14T02:26:03.854Z,100333.11
2018-06-14T02:28:33.121Z,100329.16
2018-06-14T02:42:43.382Z,100345.16
2018-06-14T02:45:12.272Z,100356.79
2018-06-14T02:47:42.428Z,100354.00
2018-06-14T02:50:11.015Z,100352.41
2018-06-14T02:52:44.514Z,100362.59
2018-06-14T02:55:13.038Z,100358.33
2018-06-14T02:57:41.757Z,100359.05
2018-06-14T03:00:10.401Z,100357.64
2018-06-14T03:02:48.217Z,100359.22
2018-06-14T03:05:16.765Z,100362.99
2018-06-14T03:07:45.173Z,100360.31
2018-06-14T03:10:13.623Z,100359.96
2018-06-14T03:12:51.480Z,100359.22
2018-06-14T03:15:20.060Z,100364.33
2018-06-14T03:17:51.199Z,100372.55
2018-06-14T03:20:23.691Z,100377.91
2018-06-14T03:25:44.857Z,100384.91
2018-06-14T03:28:13.285Z,100380.64
2018-06-14T03:31:04.436Z,100374.97
2018-06-14T03:33:32.766Z,100375.36
2018-06-14T03:36:01.108Z,100372.36
2018-06-14T03:38:30.101Z,100371.27
2018-06-14T03:40:58.458Z,100372.67
2018-06-14T03:43:26.772Z,100364.27
2018-06-14T03:45:55.078Z,100380.58
2018-06-14T03:48:25.550Z,100378.22
2018-06-14T03:50:54.846Z,100364.89
2018-06-14T03:53:23.920Z,100367.88
2018-06-14T03:55:53.438Z,100373.84
2018-06-14T03:58:22.233Z,100375.11
2018-06-14T04:00:50.978Z,100381.66
2018-06-14T04:03:19.694Z,100382.99
2018-06-14T04:05:48.518Z,100385.82
2018-06-14T04:08:17.851Z,100389.06
2018-06-14T04:10:47.356Z,100386.13
2018-06-14T04:13:15.847Z,100384.55
2018-06-14T04:15:44.354Z,100391.24
2018-06-14T04:18:13.166Z,100390.78
2018-06-14T04:20:55.412Z,100393.90
2018-06-14T04:23:23.744Z,100398.69
2018-06-14T04:25:52.150Z,100397.67
2018-06-14T04:28:20.710Z,100395.95
2018-06-14T04:30:50.820Z,100397.72
2018-06-14T04:33:19.506Z,100402.83
2018-06-14T04:35:48.354Z,100404.16
2018-06-14T04:38:18.876Z,100407.22
2018-06-14T04:41:10.063Z,100410.49
2018-06-14T04:43:38.600Z,100415.07
2018-06-14T04:46:07.647Z,100416.72
2018-06-14T04:48:36.120Z,100416.34
2018-06-14T04:51:09.710Z,100425.72
2018-06-14T04:53:41.282Z,100427.77
2018-06-14T04:56:12.753Z,100429.11
2018-06-14T04:58:42.822Z,100428.92
2018-06-14T05:04:18.448Z,100435.15
2018-06-14T05:06:48.156Z,100433.81
2018-06-14T05:09:16.706Z,100428.98
2018-06-14T05:14:38.357Z,100430.45
2018-06-14T05:17:06.808Z,100431.66
2018-06-14T05:19:35.219Z,100426.73
2018-06-14T05:22:03.881Z,100429.87
2018-06-14T05:24:33.016Z,100431.53
2018-06-14T05:27:02.108Z,100426.66
2018-06-14T05:29:32.318Z,100431.89
2018-06-14T05:32:02.456Z,100434.75
2018-06-14T05:34:31.786Z,100433.30
2018-06-14T05:37:00.197Z,100436.16
2018-06-14T05:39:28.634Z,100434.33
2018-06-14T05:41:57.279Z,100438.70
2018-06-14T05:44:25.763Z,100438.19
2018-06-14T05:46:54.219Z,100442.47
2018-06-14T05:49:22.839Z,100436.84
2018-06-14T05:55:03.001Z,100430.78
2018-06-14T05:57:31.391Z,100428.27
2018-06-14T06:00:00.295Z,100425.27
2018-06-14T06:02:29.191Z,100423.33
2018-06-14T06:04:59.813Z,100415.50
2018-06-14T06:07:29.481Z,100420.50
2018-06-14T06:09:57.962Z,100413.73
2018-06-14T06:12:27.805Z,100419.48
2018-06-14T06:14:57.350Z,100417.05
2018-06-14T06:17:26.143Z,100421.55
2018-06-14T06:19:55.112Z,100424.30
2018-06-14T06:22:24.784Z,100421.72
2018-06-14T06:24:53.218Z,100418.88
2018-06-14T06:27:21.700Z,100420.31
2018-06-14T06:29:50.249Z,100417.73
2018-06-14T06:32:28.144Z,100428.06
2018-06-14T06:34:57.547Z,100420.10
2018-06-14T06:40:18.783Z,100422.31
2018-06-14T06:54:19.151Z,100421.90
2018-06-14T06:56:47.601Z,100420.88
2018-06-14T06:59:16.091Z,100423.23
2018-06-14T07:01:44.709Z,100424.67
2018-06-14T07:04:13.193Z,100429.56
2018-06-14T07:06:41.663Z,100423.02
2018-06-14T07:09:11.593Z,100424.47
2018-06-14T07:17:25.990Z,100413.33
2018-06-14T07:19:54.722Z,100411.66
2018-06-14T07:22:23.257Z,100411.34
2018-06-14T07:24:51.686Z,100408.81
2018-06-14T07:27:20.165Z,100408.66
2018-06-14T07:29:48.921Z,100408.81
2018-06-14T07:32:22.453Z,100412.60
2018-06-14T07:34:50.884Z,100417.28
2018-06-14T07:37:19.355Z,100416.09
2018-06-14T07:39:47.863Z,100412.20
2018-06-14T07:42:16.418Z,100408.90
2018-06-14T07:44:44.911Z,100406.78
2018-06-14T07:47:13.338Z,100406.02
2018-06-14T07:49:41.814Z,100412.28
2018-06-14T07:58:05.478Z,100407.31
2018-06-14T08:00:34.015Z,100395.36
2018-06-14T08:03:03.017Z,100400.60
2018-06-14T08:05:31.461Z,100396.33
2018-06-14T08:07:59.968Z,100403.60
2018-06-14T08:10:28.478Z,100406.20
2018-06-14T08:12:56.980Z,100401.03
2018-06-14T08:15:25.481Z,100398.78
2018-06-14T08:17:54.877Z,100391.36
2018-06-14T08:20:23.255Z,100391.03
2018-06-14T08:22:51.804Z,100393.56
2018-06-14T08:25:20.218Z,100396.52
2018-06-14T08:27:49.696Z,100397.86
2018-06-14T08:30:18.166Z,100397.73
2018-06-14T08:35:39.953Z,100392.41
2018-06-14T08:38:08.448Z,100382.58
2018-06-14T08:40:36.915Z,100380.03
2018-06-14T08:43:05.352Z,100387.64
2018-06-14T08:45:33.785Z,100391.05
2018-06-14T08:48:02.286Z,100389.28
2018-06-14T08:50:30.723Z,100390.35
2018-06-14T08:52:59.242Z,100394.55
2018-06-14T08:55:27.923Z,100396.05
2018-06-14T08:57:56.290Z,100395.45
2018-06-14T09:00:24.726Z,100401.02
2018-06-14T09:02:53.201Z,100400.96
2018-06-14T09:05:21.582Z,100400.58
2018-06-14T09:07:49.958Z,100397.05
2018-06-14T09:10:18.358Z,100393.83
2018-06-14T09:12:46.886Z,100389.47
2018-06-14T09:15:15.220Z,100389.80
2018-06-14T09:17:43.622Z,100388.45
2018-06-14T09:20:12.005Z,100391.67
2018-06-14T09:22:40.414Z,100393.92
2018-06-14T09:25:08.821Z,100391.59
2018-06-14T09:27:37.214Z,100388.03
2018-06-14T09:30:05.602Z,100386.13
2018-06-14T09:32:33.976Z,100380.92
2018-06-14T09:35:02.361Z,100384.62
2018-06-14T09:37:30.729Z,100389.91
2018-06-14T09:39:59.154Z,100376.08
2018-06-14T09:42:27.610Z,100372.70
2018-06-14T09:44:55.986Z,100373.19
2018-06-14T09:47:24.454Z,100374.09
2018-06-14T09:49:52.847Z,100367.94
2018-06-14T09:52:26.666Z,100366.02
2018-06-14T09:54:55.818Z,100368.73
2018-06-14T09:57:24.319Z,100367.54
2018-06-14T09:59:52.816Z,100363.95
2018-06-14T10:02:21.565Z,100357.16
2018-06-14T10:04:49.926Z,100348.95
2018-06-14T10:07:18.762Z,100354.05
2018-06-14T10:09:47.198Z,100343.25
2018-06-14T10:12:15.614Z,100336.52
2018-06-14T10:14:44.097Z,100347.77
2018-06-14T10:17:12.580Z,100340.80
2018-06-14T10:19:41.003Z,100347.77
2018-06-14T10:22:14.762Z,100348.21
2018-06-14T10:24:43.155Z,100340.44
2018-06-14T10:27:30.676Z,100340.39
2018-06-14T10:29:59.150Z,100340.93
2018-06-14T10:32:27.646Z,100340.16
2018-06-14T10:34:56.021Z,100337.80
2018-06-14T10:37:24.503Z,100340.86
2018-06-14T10:39:52.918Z,100334.84
2018-06-14T10:42:21.356Z,100332.25
2018-06-14T10:44:50.020Z,100328.97
2018-06-14T10:47:18.436Z,100319.48
2018-06-14T10:49:46.892Z,100321.63
2018-06-14T10:52:15.616Z,100329.68
2018-06-14T10:54:43.978Z,100327.53
2018-06-14T10:57:12.482Z,100328.77
2018-06-14T10:59:41.130Z,100323.58
2018-06-14T11:02:09.770Z,100332.20
2018-06-14T11:04:38.482Z,100332.72
2018-06-14T11:07:06.994Z,100326.72
2018-06-14T11:09:35.358Z,100327.70
2018-06-14T11:12:03.883Z,100313.69
2018-06-14T11:14:32.250Z,100324.89
2018-06-14T11:17:00.660Z,100317.72
2018-06-14T11:19:29.130Z,100321.61
2018-06-14T11:21:57.872Z,100316.03
2018-06-14T11:24:26.294Z,100313.05
2018-06-14T11:26:55.569Z,100316.08
2018-06-14T11:29:23.985Z,100311.89
2018-06-14T11:31:52.779Z,100309.77
2018-06-14T11:34:21.184Z,100304.64
2018-06-14T11:36:50.027Z,100302.47
2018-06-14T11:39:18.609Z,100299.62
2018-06-14T11:41:47.478Z,100295.70
2018-06-14T11:44:15.894Z,100291.51
2018-06-14T11:46:44.362Z,100286.19
2018-06-14T11:49:12.795Z,100293.63
2018-06-14T11:51:41.182Z,100292.92
2018-06-14T11:54:09.663Z,100281.94
2018-06-14T11:56:38.088Z,100275.18
2018-06-14T11:59:06.443Z,100274.95
2018-06-14T12:01:35.082Z,100284.72
2018-06-14T12:04:03.607Z,100285.86
2018-06-14T12:06:32.129Z,100275.17
2018-06-14T12:09:00.623Z,100271.54
2018-06-14T12:11:29.080Z,100267.60
2018-06-14T12:13:57.684Z,100270.01
2018-06-14T12:16:26.087Z,100276.27
2018-06-14T12:18:55.920Z,100273.99
2018-06-14T12:21:24.463Z,100269.86
2018-06-14T12:23:52.957Z,100272.87
2018-06-14T12:26:21.814Z,100270.66
2018-06-14T12:28:50.271Z,100265.07
2018-06-14T12:31:18.858Z,100266.49
2018-06-14T12:33:47.224Z,100264.54
2018-06-14T12:36:15.853Z,100261.80
2018-06-14T12:38:44.349Z,100253.77
2018-06-14T12:41:12.704Z,100251.18
2018-06-14T12:43:41.679Z,100258.65
2018-06-14T12:46:10.289Z,100254.66
2018-06-14T12:48:38.633Z,100251.19
2018-06-14T12:51:07.089Z,100250.05
2018-06-14T12:53:35.603Z,100246.89
2018-06-14T12:56:04.053Z,100249.94
2018-06-14T12:58:32.535Z,100246.20
2018-06-14T13:01:01.047Z,100245.72
2018-06-14T13:03:29.618Z,100237.77
2018-06-14T13:05:58.009Z,100241.33
2018-06-14T13:08:26.534Z,100234.83
2018-06-14T13:10:55.043Z,100242.08
2018-06-14T13:13:23.457Z,100242.01
2018-06-14T13:15:52.202Z,100230.80
2018-06-14T13:18:20.590Z,100231.94
2018-06-14T13:20:49.045Z,100229.70
2018-06-14T13:23:17.448Z,100224.31
2018-06-14T13:25:45.826Z,100226.03
2018-06-14T13:28:15.957Z,100225.33
2018-06-14T13:30:45.776Z,100221.58
2018-06-14T13:33:14.983Z,100209.06
2018-06-14T13:35:43.546Z,100215.88
2018-06-14T13:38:12.192Z,100206.05
2018-06-14T13:40:40.710Z,100207.03
2018-06-14T13:43:09.109Z,100210.70
2018-06-14T13:45:38.309Z,100204.45
2018-06-14T13:48:07.384Z,100203.86
2018-06-14T13:50:35.781Z,100203.64
2018-06-14T13:53:05.035Z,100208.20
2018-06-14T13:58:09.106Z,100191.48
2018-06-14T14:00:37.641Z,100192.81
2018-06-14T14:03:06.701Z,100184.65
2018-06-14T14:05:35.152Z,100193.03
2018-06-14T14:08:04.142Z,100180.20
2018-06-14T14:10:33.056Z,100171.75
2018-06-14T14:13:01.618Z,100181.04
2018-06-14T14:15:30.453Z,100182.39
2018-06-14T14:17:59.114Z,100172.42
2018-06-14T14:20:27.518Z,100181.47
2018-06-14T14:22:56.245Z,100170.60
2018-06-14T14:25:26.016Z,100170.52
2018-06-14T14:27:54.703Z,100168.02
2018-06-14T14:30:23.308Z,100157.95
2018-06-14T14:33:01.757Z,100157.33
2018-06-14T14:35:31.344Z,100161.82
2018-06-14T14:38:00.314Z,100150.42
2018-06-14T14:40:29.218Z,100154.33
2018-06-14T14:43:03.332Z,100147.52
2018-06-14T14:45:33.037Z,100151.69
2018-06-14T14:48:02.138Z,100144.31
2018-06-14T14:50:30.884Z,100141.76
2018-06-14T14:52:59.438Z,100142.18
2018-06-14T14:55:27.893Z,100137.94
2018-06-14T14:57:56.888Z,100136.33
2018-06-14T15:00:25.399Z,100130.35
2018-06-14T15:02:54.866Z,100125.95
2018-06-14T15:05:26.365Z,100125.59
2018-06-14T15:07:55.766Z,100131.92
2018-06-14T15:10:24.675Z,100127.58
2018-06-14T15:12:54.118Z,100121.98
2018-06-14T15:15:24.446Z,100128.98
2018-06-14T15:17:53.154Z,100128.53
2018-06-14T15:20:21.578Z,100128.86
2018-06-14T15:22:51.088Z,100132.92
2018-06-14T15:25:19.654Z,100126.03
2018-06-14T15:27:48.118Z,100128.64
2018-06-14T15:30:16.592Z,100125.16
2018-06-14T15:32:45.974Z,100122.27
2018-06-14T15:35:14.561Z,100121.97
2018-06-14T15:37:43.190Z,100115.51
2018-06-14T15:40:12.026Z,100115.77
2018-06-14T15:42:41.676Z,100107.11
2018-06-14T15:45:10.178Z,100109.97
2018-06-14T15:47:38.654Z,100110.92
2018-06-14T15:50:08.104Z,100111.64
2018-06-14T15:52:36.786Z,100105.17
2018-06-14T15:55:16.458Z,100106.27
2018-06-14T15:57:44.938Z,100105.75
2018-06-14T16:00:13.549Z,100092.78
2018-06-14T16:02:41.993Z,100101.16
2018-06-14T16:05:15.843Z,100101.06
2018-06-14T16:07:44.688Z,100097.98
2018-06-14T16:10:14.002Z,100098.73
2018-06-14T16:12:42.498Z,100090.31
2018-06-14T16:15:10.977Z,100088.20
2018-06-14T16:17:39.410Z,100084.98
2018-06-14T16:20:07.950Z,100086.86
2018-06-14T16:22:36.637Z,100092.21
2018-06-14T16:25:05.104Z,100079.41
2018-06-14T16:27:33.611Z,100082.11
2018-06-14T16:30:02.257Z,100083.84
2018-06-14T16:32:30.784Z,100085.04
2018-06-14T16:34:59.296Z,100090.67
2018-06-14T16:37:27.675Z,100085.96
2018-06-14T16:39:56.160Z,100081.89
2018-06-14T16:42:24.750Z,100083.84
2018-06-14T16:44:53.226Z,100076.84
2018-06-14T16:47:21.715Z,100083.41
2018-06-14T16:49:50.204Z,100083.77
2018-06-14T16:52:19.053Z,100080.63
2018-06-14T16:54:47.599Z,100078.72
2018-06-14T16:57:16.096Z,100072.47
2018-06-14T16:59:44.710Z,100077.05
2018-06-14T17:02:13.370Z,100068.92
2018-06-14T17:04:41.854Z,100076.25
2018-06-14T17:07:10.358Z,100071.05
2018-06-14T17:09:38.835Z,100070.68
2018-06-14T17:12:07.366Z,100076.46
2018-06-14T17:14:35.922Z,100068.55
2018-06-14T17:17:04.308Z,100070.06
2018-06-14T17:19:32.713Z,100072.70
2018-06-14T17:22:01.084Z,100079.61
2018-06-14T17:24:29.420Z,100082.11
2018-06-14T17:26:58.018Z,100078.05
2018-06-14T17:29:27.367Z,100077.06
2018-06-14T17:31:56.052Z,100076.84
2018-06-14T17:34:24.577Z,100078.34
2018-06-14T17:36:55.248Z,100079.62
2018-06-14T17:39:24.015Z,100084.78
2018-06-14T17:41:54.133Z,100088.48
2018-06-14T17:44:23.635Z,100088.25
2018-06-14T17:46:53.651Z,100084.41
2018-06-14T17:49:22.785Z,100097.95
2018-06-14T17:51:51.594Z,100091.69
2018-06-14T17:54:20.676Z,100092.05
2018-06-14T17:56:49.458Z,100098.97
2018-06-14T17:59:18.629Z,100092.53
2018-06-14T18:01:47.207Z,100093.70
2018-06-14T18:04:15.840Z,100096.59
2018-06-14T18:06:44.456Z,100097.77
2018-06-14T18:09:13.179Z,100097.32
2018-06-14T18:11:41.800Z,100103.43
2018-06-14T18:14:10.367Z,100105.55
2018-06-14T18:16:39.233Z,100109.98
2018-06-14T18:19:08.375Z,100112.68
2018-06-14T18:21:42.419Z,100113.81
2018-06-14T18:24:14.599Z,100108.91
2018-06-14T18:26:47.606Z,100112.34
2018-06-14T18:29:16.333Z,100116.69
2018-06-14T18:31:45.003Z,100115.66
2018-06-14T18:34:13.718Z,100113.32
2018-06-14T18:36:42.348Z,100111.20
2018-06-14T18:39:11.754Z,100118.73
2018-06-14T18:41:45.681Z,100118.18
2018-06-14T18:44:15.440Z,100119.86
2018-06-14T18:46:45.299Z,100124.72
2018-06-14T18:49:14.815Z,100120.09
2018-06-14T18:51:43.863Z,100121.44
2018-06-14T18:54:12.605Z,100123.38
2018-06-14T18:56:41.199Z,100125.27
2018-06-14T18:59:09.783Z,100120.45
2018-06-14T19:01:38.553Z,100134.33
2018-06-14T19:04:08.347Z,100127.93
2018-06-14T19:06:38.475Z,100134.62
2018-06-14T19:09:09.399Z,100142.65
2018-06-14T19:11:38.088Z,100146.22
2018-06-14T19:14:06.933Z,100146.85
2018-06-14T19:16:36.677Z,100148.67
2018-06-14T19:19:05.435Z,100153.09
2018-06-14T19:21:34.273Z,100155.16
2018-06-14T19:24:03.216Z,100162.47
2018-06-14T19:26:32.150Z,100163.05
2018-06-14T19:29:01.200Z,100168.59
2018-06-14T19:31:39.099Z,100175.13
2018-06-14T19:34:07.607Z,100174.35
2018-06-14T19:36:36.296Z,100173.23
2018-06-14T19:39:06.850Z,100180.31
2018-06-14T19:41:40.609Z,100181.80
2018-06-14T19:44:09.049Z,100184.09
2018-06-14T19:46:38.131Z,100186.92
2018-06-14T19:49:06.679Z,100188.41
2018-06-14T19:51:40.467Z,100190.89
2018-06-14T19:54:09.198Z,100197.66
2018-06-14T19:56:37.805Z,100198.14
2018-06-14T19:59:06.735Z,100198.92
2018-06-14T20:01:36.094Z,100207.97
2018-06-14T20:04:05.432Z,100209.67
2018-06-14T20:06:34.471Z,100212.64
2018-06-14T20:09:04.351Z,100212.42
2018-06-14T20:11:33.585Z,100213.32
2018-06-14T20:14:02.872Z,100214.26
2018-06-14T20:16:31.760Z,100211.55
2018-06-14T20:19:00.471Z,100213.27
2018-06-14T20:21:29.243Z,100214.52
2018-06-14T20:23:58.949Z,100216.35
2018-06-14T20:26:27.513Z,100213.46
2018-06-14T20:28:56.113Z,100221.73
2018-06-14T20:31:24.855Z,100221.08
2018-06-14T20:33:53.302Z,100223.27
2018-06-14T20:36:22.294Z,100227.34
2018-06-14T20:38:50.867Z,100224.19
2018-06-14T20:41:19.493Z,100225.12
2018-06-14T20:43:48.096Z,100224.02
2018-06-14T20:46:16.829Z,100223.12
2018-06-14T20:48:45.282Z,100221.22
2018-06-14T20:51:13.741Z,100220.42
2018-06-14T20:53:42.191Z,100217.72
2018-06-14T20:56:10.825Z,100217.97
2018-06-14T20:58:39.213Z,100220.80
2018-06-14T21:01:07.778Z,100222.29
2018-06-14T21:03:36.176Z,100221.84
2018-06-14T21:06:04.708Z,100226.23
2018-06-14T21:08:33.183Z,100224.11
2018-06-14T21:11:01.675Z,100228.89
2018-06-14T21:13:30.107Z,100230.27
2018-06-14T21:15:58.425Z,100232.80
2018-06-14T21:18:26.845Z,100237.89
2018-06-14T21:20:55.217Z,100240.82
2018-06-14T21:23:23.887Z,100244.52
2018-06-14T21:25:52.517Z,100238.78
2018-06-14T21:28:20.847Z,100241.93
2018-06-14T21:30:49.322Z,100248.09
2018-06-14T21:33:17.824Z,100244.63
2018-06-14T21:35:46.233Z,100246.52
2018-06-14T21:38:14.652Z,100242.94
2018-06-14T21:40:43.091Z,100238.44
2018-06-14T21:43:11.525Z,100244.97
2018-06-14T21:45:39.965Z,100237.09
2018-06-14T21:48:08.284Z,100240.47
2018-06-14T21:50:36.614Z,100241.16
2018-06-14T21:53:05.018Z,100236.66
2018-06-14T21:55:33.480Z,100241.81
2018-06-14T21:58:01.865Z,100243.05
2018-06-14T22:00:30.172Z,100239.81
2018-06-14T22:03:03.913Z,100238.12
2018-06-14T22:05:32.307Z,100238.34
2018-06-14T22:08:00.728Z,100241.47
2018-06-14T22:10:29.322Z,100236.42
2018-06-14T22:12:58.486Z,100232.60
2018-06-14T22:15:27.530Z,100232.40
2018-06-14T22:17:55.970Z,100238.56
2018-06-14T22:20:24.309Z,100228.91
2018-06-14T22:22:52.746Z,100231.38
2018-06-14T22:25:21.169Z,100234.19
2018-06-14T22:27:49.505Z,100231.27
2018-06-14T22:30:17.885Z,100231.95
2018-06-14T22:32:46.868Z,100225.75
2018-06-14T22:35:28.845Z,100230.14
2018-06-14T22:37:57.349Z,100228.90
2018-06-14T22:40:25.957Z,100235.30
2018-06-14T22:42:54.344Z,100233.27
2018-06-14T22:45:22.703Z,100228.02
2018-06-14T22:47:51.125Z,100229.89
2018-06-14T22:50:31.117Z,100233.04
2018-06-14T22:53:05.327Z,100238.19
2018-06-14T22:55:33.746Z,100239.00
2018-06-14T22:58:02.106Z,100236.52
2018-06-14T23:00:40.191Z,100235.72
2018-06-14T23:03:08.671Z,100233.94
2018-06-14T23:05:37.152Z,100238.96
2018-06-14T23:08:05.520Z,100243.23
2018-06-14T23:10:45.359Z,100236.59
2018-06-14T23:13:20.005Z,100234.73
2018-06-14T23:15:48.391Z,100238.42
2018-06-14T23:18:16.686Z,100239.41
2018-06-14T23:20:45.027Z,100239.38
2018-06-14T23:23:13.365Z,100243.08
2018-06-14T23:25:41.763Z,100237.90
2018-06-14T23:28:10.221Z,100244.96
2018-06-14T23:30:38.761Z,100239.81
2018-06-14T23:33:12.633Z,100256.16
2018-06-14T23:35:41.357Z,100275.42
2018-06-14T23:38:09.732Z,100278.55
2018-06-14T23:40:38.041Z,100285.04
2018-06-14T23:43:06.928Z,100281.05
2018-06-14T23:45:35.577Z,100282.32
2018-06-14T23:48:04.292Z,100280.47
2018-06-14T23:50:33.203Z,100280.70
2018-06-14T23:53:01.892Z,100277.34
2018-06-14T23:55:31.522Z,100280.80
2018-06-14T23:58:00.163Z,100279.66
